Time;durP1;ratioP1;P1;durP2;ratioP2;P2;SDS_P1;SDS_P2;PMS_P1;PMS_P2;Temp;Humidity;BMP_temperature;BMP_pressure;BME280_temperature;BME280_humidity;BME280_pressure;Samples;Min_cycle;Max_cycle;Signal;HPM_P1;HPM_P2
2022/09/10 00:00:47;;;;;;;;;;;;;;;19.80;100.00;100803.31;5042137;28;19971;-81
2022/09/10 00:03:14;;;;;;;;;;;;;;;19.89;100.00;100807.13;5045739;28;19932;-80
2022/09/10 00:05:41;;;;;;;;;;;;;;;19.90;100.00;100806.84;5046225;28;19921;-81
2022/09/10 00:08:08;;;;;;;;;;;;;;;20.03;100.00;100804.69;5046836;28;20337;-80
2022/09/10 00:10:39;;;;;;;;;;;;;;;20.22;100.00;100807.72;5052906;28;19921;-80
2022/09/10 00:13:09;;;;;;;;;;;;;;;20.34;100.00;100805.56;5044272;28;19995;-82
2022/09/10 00:15:42;;;;;;;;;;;;;;;20.45;100.00;100812.56;5047350;28;19928;-82
2022/09/10 00:18:09;;;;;;;;;;;;;;;20.46;100.00;100799.91;5046763;28;19920;-81
2022/09/10 00:20:41;;;;;;;;;;;;;;;20.55;100.00;100793.75;5050991;28;19921;-80
2022/09/10 00:23:09;;;;;;;;;;;;;;;20.62;100.00;100796.16;5046529;28;20007;-82
2022/09/10 00:25:35;;;;;;;;;;;;;;;20.35;100.00;100793.69;5037597;28;20356;-80
2022/09/10 00:28:02;;;;;;;;;;;;;;;20.31;100.00;100790.75;5041768;28;19925;-80
2022/09/10 00:30:29;;;;;;;;;;;;;;;20.16;100.00;100796.13;5036945;28;19921;-79
2022/09/10 00:32:57;;;;;;;;;;;;;;;19.89;100.00;100794.44;5034942;28;19952;-80
2022/09/10 00:35:23;;;;;;;;;;;;;;;20.18;100.00;100802.03;5036062;28;20348;-85
2022/09/10 00:37:50;;;;;;;;;;;;;;;20.22;100.00;100795.03;5041621;28;19975;-79
2022/09/10 00:40:18;;;;;;;;;;;;;;;19.88;100.00;100800.13;5038169;28;19921;-82
2022/09/10 00:42:45;;;;;;;;;;;;;;;20.04;100.00;100796.38;5049200;28;20260;-79
2022/09/10 00:45:16;;;;;;;;;;;;;;;20.32;100.00;100797.75;5044170;28;19929;-82
2022/09/10 00:47:45;;;;;;;;;;;;;;;20.19;100.00;100781.28;5048878;28;19983;-79
2022/09/10 00:50:16;;;;;;;;;;;;;;;20.13;100.00;100785.88;5038639;28;19956;-80
2022/09/10 00:52:44;;;;;;;;;;;;;;;20.04;100.00;100788.28;5041759;28;19975;-80
2022/09/10 00:55:12;;;;;;;;;;;;;;;20.14;100.00;100784.78;5039761;28;19936;-82
2022/09/10 00:57:39;;;;;;;;;;;;;;;20.35;100.00;100770.22;5045419;28;19963;-78
2022/09/10 01:00:08;;;;;;;;;;;;;;;20.31;100.00;100774.56;5042505;28;19921;-82
2022/09/10 01:02:39;;;;;;;;;;;;;;;19.97;100.00;100768.03;5041917;28;20280;-83
2022/09/10 01:05:07;;;;;;;;;;;;;;;20.18;100.00;100766.97;5041723;28;20242;-79
2022/09/10 01:07:35;;;;;;;;;;;;;;;20.15;100.00;100770.22;5039429;28;19921;-78
2022/09/10 01:10:05;;;;;;;;;;;;;;;20.20;100.00;100772.13;5043273;28;19933;-80
2022/09/10 01:12:41;;;;;;;;;;;;;;;20.11;100.00;100766.44;5047585;28;20383;-82
2022/09/10 01:15:14;;;;;;;;;;;;;;;20.23;100.00;100767.00;5042399;28;19921;-81
2022/09/10 01:17:46;;;;;;;;;;;;;;;20.06;100.00;100769.97;5045340;28;20011;-78
2022/09/10 01:20:31;;;;;;;;;;;;;;;19.96;100.00;100767.22;5040495;28;19991;-78
2022/09/10 01:23:11;;;;;;;;;;;;;;;20.16;100.00;100766.47;5049316;28;19921;-81
2022/09/10 01:25:43;;;;;;;;;;;;;;;20.10;100.00;100764.84;5047631;28;20352;-78
2022/09/10 01:28:15;;;;;;;;;;;;;;;19.72;100.00;100758.81;5056160;28;19979;-86
2022/09/10 01:30:43;;;;;;;;;;;;;;;19.62;100.00;100764.16;5050507;28;20353;-82
2022/09/10 01:33:15;;;;;;;;;;;;;;;19.89;100.00;100764.78;5057484;28;19920;-80
2022/09/10 01:35:45;;;;;;;;;;;;;;;20.06;100.00;100769.13;5052942;28;19921;-85
2022/09/10 01:38:14;;;;;;;;;;;;;;;20.01;100.00;100759.16;5060895;28;19920;-82
2022/09/10 01:40:40;;;;;;;;;;;;;;;20.15;100.00;100764.81;5051685;28;20300;-79
2022/09/10 01:43:08;;;;;;;;;;;;;;;19.95;100.00;100765.63;5060040;28;19982;-82
2022/09/10 01:45:42;;;;;;;;;;;;;;;20.09;100.00;100766.72;5053730;28;19931;-81
2022/09/10 01:48:24;;;;;;;;;;;;;;;20.11;100.00;100761.84;5055839;28;20019;-81
2022/09/10 01:50:57;;;;;;;;;;;;;;;20.15;100.00;100767.50;5051604;28;19920;-80
2022/09/10 01:53:33;;;;;;;;;;;;;;;19.79;100.00;100772.03;5044814;28;19979;-79
2022/09/10 01:56:05;;;;;;;;;;;;;;;19.96;100.00;100766.41;5043793;28;19925;-78
2022/09/10 01:58:35;;;;;;;;;;;;;;;20.42;100.00;100761.84;5051795;28;19954;-82
2022/09/10 02:01:08;;;;;;;;;;;;;;;20.61;100.00;100764.88;5161938;23;19991;-78
2022/09/10 02:03:37;;;;;;;;;;;;;;;20.59;100.00;100767.03;5017292;28;20360;-81
2022/09/10 02:06:08;;;;;;;;;;;;;;;20.47;100.00;100763.75;5007356;28;19949;-80
2022/09/10 02:08:38;;;;;;;;;;;;;;;20.30;100.00;100764.03;5017524;28;19987;-81
2022/09/10 02:11:06;;;;;;;;;;;;;;;20.39;100.00;100757.00;5018869;28;19980;-81
2022/09/10 02:13:33;;;;;;;;;;;;;;;20.16;100.00;100755.66;5017702;28;19925;-81
2022/09/10 02:16:02;;;;;;;;;;;;;;;19.98;100.00;100762.38;5019836;28;20317;-82
2022/09/10 02:18:31;;;;;;;;;;;;;;;20.07;100.00;100766.19;5017898;28;20000;-78
2022/09/10 02:21:01;;;;;;;;;;;;;;;20.10;100.00;100768.34;5010480;28;19987;-81
2022/09/10 02:23:32;;;;;;;;;;;;;;;19.85;100.00;100765.63;5020500;28;19925;-81
2022/09/10 02:25:59;;;;;;;;;;;;;;;19.98;100.00;100767.78;5017992;28;19925;-81
2022/09/10 02:28:25;;;;;;;;;;;;;;;20.10;100.00;100759.44;5017861;28;20408;-78
2022/09/10 02:30:54;;;;;;;;;;;;;;;19.96;100.00;100751.06;5018583;28;19921;-81
2022/09/10 02:33:20;;;;;;;;;;;;;;;19.51;100.00;100757.91;5016872;28;19952;-79
2022/09/10 02:35:48;;;;;;;;;;;;;;;19.96;100.00;100761.84;5017623;28;19929;-82
2022/09/10 02:38:16;;;;;;;;;;;;;;;19.76;100.00;100759.94;5015036;28;19983;-80
2022/09/10 02:40:43;;;;;;;;;;;;;;;20.12;100.00;100758.09;5015748;28;19921;-80
2022/09/10 02:43:09;;;;;;;;;;;;;;;19.88;100.00;100768.59;5018657;28;19992;-83
2022/09/10 02:45:39;;;;;;;;;;;;;;;19.17;100.00;100765.59;5016672;28;19987;-82
2022/09/10 02:48:06;;;;;;;;;;;;;;;19.65;100.00;100764.47;5018475;28;19929;-79
2022/09/10 02:50:33;;;;;;;;;;;;;;;19.75;100.00;100762.88;5019437;28;19991;-78
2022/09/10 02:53:01;;;;;;;;;;;;;;;19.81;100.00;100756.41;5016693;28;19921;-78
2022/09/10 02:55:28;;;;;;;;;;;;;;;20.11;100.00;100751.06;5019861;28;20325;-81
2022/09/10 02:57:55;;;;;;;;;;;;;;;20.19;100.00;100746.25;5016178;28;19991;-81
2022/09/10 03:00:24;;;;;;;;;;;;;;;19.61;100.00;100747.19;5017244;28;19925;-81
2022/09/10 03:02:50;;;;;;;;;;;;;;;19.93;100.00;100756.97;5015925;28;19984;-80
2022/09/10 03:05:17;;;;;;;;;;;;;;;19.44;100.00;100760.06;5018034;28;19926;-79
2022/09/10 03:07:44;;;;;;;;;;;;;;;19.49;100.00;100759.28;5017775;28;19983;-78
2022/09/10 03:10:12;;;;;;;;;;;;;;;19.51;100.00;100757.13;5017847;28;20280;-79
2022/09/10 03:12:39;;;;;;;;;;;;;;;19.49;100.00;100761.97;5018795;28;20381;-78
2022/09/10 03:15:07;;;;;;;;;;;;;;;19.65;100.00;100759.06;5018378;28;19921;-78
2022/09/10 03:17:33;;;;;;;;;;;;;;;19.63;100.00;100771.97;5016093;28;19929;-81
2022/09/10 03:20:00;;;;;;;;;;;;;;;19.61;100.00;100768.75;5017283;28;19925;-78
2022/09/10 03:22:27;;;;;;;;;;;;;;;19.17;100.00;100766.41;5019772;28;19980;-81
2022/09/10 03:24:54;;;;;;;;;;;;;;;19.52;100.00;100764.94;5017943;28;20016;-81
2022/09/10 03:27:21;;;;;;;;;;;;;;;19.58;100.00;100763.88;5016335;28;19921;-78
2022/09/10 03:29:48;;;;;;;;;;;;;;;19.28;100.00;100769.16;5017908;28;20332;-78
2022/09/10 03:32:15;;;;;;;;;;;;;;;19.70;100.00;100771.78;5016648;28;19922;-78
2022/09/10 03:34:41;;;;;;;;;;;;;;;19.93;100.00;100775.03;5017629;28;19976;-79
2022/09/10 03:37:08;;;;;;;;;;;;;;;19.85;100.00;100769.13;5015703;28;20000;-78
2022/09/10 03:39:37;;;;;;;;;;;;;;;20.06;100.00;100771.81;5019921;28;19976;-82
2022/09/10 03:42:04;;;;;;;;;;;;;;;20.22;100.00;100770.78;5016427;28;19929;-81
2022/09/10 03:44:32;;;;;;;;;;;;;;;20.34;100.00;100768.63;5017232;28;19921;-82
2022/09/10 03:46:59;;;;;;;;;;;;;;;20.36;100.00;100771.88;5016532;28;20349;-81
2022/09/10 03:49:26;;;;;;;;;;;;;;;20.15;100.00;100770.22;5017551;28;20332;-78
2022/09/10 03:51:53;;;;;;;;;;;;;;;20.38;100.00;100763.50;5016760;28;19921;-80
2022/09/10 03:54:20;;;;;;;;;;;;;;;20.43;100.00;100766.19;5013250;28;19925;-81
2022/09/10 03:56:46;;;;;;;;;;;;;;;20.00;100.00;100775.59;5015409;28;20345;-81
2022/09/10 03:59:13;;;;;;;;;;;;;;;19.92;100.00;100770.75;5009504;28;19984;-79
2022/09/10 04:01:41;;;;;;;;;;;;;;;19.76;100.00;100767.19;5014113;28;19979;-80
2022/09/10 04:04:08;;;;;;;;;;;;;;;20.03;100.00;100765.09;5015425;28;20436;-81
2022/09/10 04:06:36;;;;;;;;;;;;;;;20.17;100.00;100762.69;5016318;28;19945;-80
2022/09/10 04:09:02;;;;;;;;;;;;;;;19.83;100.00;100767.75;5014818;28;19995;-81
2022/09/10 04:11:29;;;;;;;;;;;;;;;20.01;100.00;100764.56;5015174;28;20336;-83
2022/09/10 04:13:56;;;;;;;;;;;;;;;20.04;100.00;100764.00;5014763;28;19921;-79
2022/09/10 04:16:23;;;;;;;;;;;;;;;20.19;100.00;100765.91;5013898;28;19921;-82
2022/09/10 04:18:53;;;;;;;;;;;;;;;20.40;100.00;100771.31;5014578;28;20386;-81
2022/09/10 04:21:19;;;;;;;;;;;;;;;20.38;100.00;100766.19;5010745;28;19931;-79
2022/09/10 04:23:47;;;;;;;;;;;;;;;20.47;100.00;100767.25;5014936;28;20373;-82
2022/09/10 04:26:16;;;;;;;;;;;;;;;20.50;100.00;100768.63;5014072;28;19929;-81
2022/09/10 04:28:43;;;;;;;;;;;;;;;20.77;100.00;100763.75;5014987;28;19976;-82
2022/09/10 04:31:09;;;;;;;;;;;;;;;20.96;100.00;100763.97;5014207;28;20356;-80
2022/09/10 04:33:36;;;;;;;;;;;;;;;20.78;100.00;100765.38;5014729;28;19928;-80
2022/09/10 04:36:05;;;;;;;;;;;;;;;20.88;100.00;100751.06;5014562;28;20313;-80
2022/09/10 04:38:33;;;;;;;;;;;;;;;20.84;100.00;100752.66;5012597;28;19932;-82
2022/09/10 04:41:00;;;;;;;;;;;;;;;20.95;100.00;100750.78;5010215;28;19929;-80
2022/09/10 04:43:29;;;;;;;;;;;;;;;20.99;100.00;100746.44;5012737;28;19921;-82
2022/09/10 04:45:55;;;;;;;;;;;;;;;21.00;100.00;100742.66;5012795;28;19926;-81
2022/09/10 04:48:23;;;;;;;;;;;;;;;20.96;100.00;100750.47;5011215;28;19921;-81
2022/09/10 04:50:50;;;;;;;;;;;;;;;20.73;100.00;100760.00;5008109;28;19983;-81
2022/09/10 04:53:20;;;;;;;;;;;;;;;20.43;100.00;100749.22;5011454;28;19925;-84
2022/09/10 04:55:47;;;;;;;;;;;;;;;20.77;100.00;100750.25;5008105;28;20285;-79
2022/09/10 04:58:14;;;;;;;;;;;;;;;21.13;100.00;100752.06;5006984;28;19987;-80
2022/09/10 05:00:40;;;;;;;;;;;;;;;21.24;100.00;100751.75;5003535;28;19922;-81
2022/09/10 05:03:07;;;;;;;;;;;;;;;21.18;100.00;100746.63;5009306;28;19987;-81
2022/09/10 05:05:34;;;;;;;;;;;;;;;21.26;100.00;100751.47;5008722;28;19933;-80
2022/09/10 05:08:03;;;;;;;;;;;;;;;21.70;100.00;100748.06;5013686;28;20044;-82
2022/09/10 05:10:32;;;;;;;;;;;;;;;21.85;100.00;100747.97;5007761;28;20937;-79
2022/09/10 05:12:58;;;;;;;;;;;;;;;21.78;100.00;100747.44;5007944;28;19926;-81
2022/09/10 05:15:25;;;;;;;;;;;;;;;21.95;100.00;100744.38;5005714;28;20274;-81
2022/09/10 05:17:52;;;;;;;;;;;;;;;21.84;100.00;100751.72;5003760;28;20375;-79
2022/09/10 05:20:19;;;;;;;;;;;;;;;21.91;100.00;100752.25;5002763;28;20370;-79
2022/09/10 05:22:45;;;;;;;;;;;;;;;22.25;100.00;100750.69;5008052;28;19928;-84
2022/09/10 05:25:12;;;;;;;;;;;;;;;22.38;100.00;100737.28;5005162;28;19932;-82
2022/09/10 05:27:40;;;;;;;;;;;;;;;22.53;100.00;100749.06;5009551;28;19991;-79
2022/09/10 05:30:07;;;;;;;;;;;;;;;22.53;100.00;100733.63;5005127;28;19965;-81
2022/09/10 05:32:38;;;;;;;;;;;;;;;22.76;100.00;100726.66;5005625;28;20416;-82
2022/09/10 05:35:06;;;;;;;;;;;;;;;22.81;100.00;100728.47;5005520;28;19921;-80
2022/09/10 05:37:32;;;;;;;;;;;;;;;22.84;100.00;100736.03;5013838;28;20080;-80
2022/09/10 05:39:59;;;;;;;;;;;;;;;22.91;100.00;100738.41;5013779;28;19995;-80
2022/09/10 05:42:26;;;;;;;;;;;;;;;23.02;100.00;100750.75;5013568;28;19996;-78
2022/09/10 05:44:54;;;;;;;;;;;;;;;23.18;100.00;100746.78;5013047;28;19979;-80
2022/09/10 05:47:21;;;;;;;;;;;;;;;23.41;100.00;100749.75;5013773;28;19922;-82
2022/09/10 05:49:48;;;;;;;;;;;;;;;23.60;100.00;100749.75;5014866;28;19979;-81
2022/09/10 05:52:15;;;;;;;;;;;;;;;23.58;100.00;100744.66;5014922;28;19991;-79
2022/09/10 05:54:41;;;;;;;;;;;;;;;23.86;100.00;100732.06;5014735;28;20347;-80
2022/09/10 05:57:08;;;;;;;;;;;;;;;24.02;100.00;100734.53;5013676;28;19921;-80
2022/09/10 05:59:35;;;;;;;;;;;;;;;24.09;100.00;100724.13;5013458;28;19925;-80
2022/09/10 06:02:03;;;;;;;;;;;;;;;24.01;100.00;100725.59;5012642;28;20300;-81
2022/09/10 06:04:29;;;;;;;;;;;;;;;23.88;100.00;100723.66;5013780;28;20002;-77
2022/09/10 06:06:56;;;;;;;;;;;;;;;23.92;100.00;100721.94;5015962;28;19983;-78
2022/09/10 06:09:23;;;;;;;;;;;;;;;24.14;100.00;100726.75;5020130;28;19925;-80
2022/09/10 06:11:50;;;;;;;;;;;;;;;24.24;100.00;100729.31;5019007;28;20355;-78
2022/09/10 06:14:16;;;;;;;;;;;;;;;24.39;100.00;100731.75;5011780;28;19921;-78
2022/09/10 06:16:42;;;;;;;;;;;;;;;24.39;100.00;100730.97;5017070;28;19991;-79
2022/09/10 06:19:10;;;;;;;;;;;;;;;24.37;100.00;100730.44;5010840;28;20335;-78
2022/09/10 06:21:38;;;;;;;;;;;;;;;24.55;100.00;100720.66;5015340;28;20382;-78
2022/09/10 06:24:05;;;;;;;;;;;;;;;24.81;100.00;100732.66;5016765;28;20045;-78
2022/09/10 06:26:31;;;;;;;;;;;;;;;24.62;100.00;100729.19;5016065;28;20346;-78
2022/09/10 06:28:58;;;;;;;;;;;;;;;24.69;100.00;100732.34;5016521;28;19932;-80
2022/09/10 06:31:25;;;;;;;;;;;;;;;24.76;100.00;100738.19;5013466;28;19921;-80
2022/09/10 06:33:52;;;;;;;;;;;;;;;24.89;100.00;100725.69;5007018;28;19937;-80
2022/09/10 06:36:20;;;;;;;;;;;;;;;25.26;100.00;100732.03;5015054;28;19937;-78
2022/09/10 06:38:48;;;;;;;;;;;;;;;25.39;100.00;100728.53;4998746;28;19926;-80
2022/09/10 06:41:15;;;;;;;;;;;;;;;25.77;100.00;100734.44;5014361;28;20062;-77
2022/09/10 06:43:43;;;;;;;;;;;;;;;25.55;100.00;100742.56;5015959;28;19921;-78
2022/09/10 06:46:12;;;;;;;;;;;;;;;25.81;100.00;100727.31;5016426;28;19925;-77
2022/09/10 06:48:39;;;;;;;;;;;;;;;25.97;100.00;100735.13;5012183;28;19921;-78
2022/09/10 06:51:07;;;;;;;;;;;;;;;26.18;100.00;100736.22;5003339;28;19975;-81
2022/09/10 06:53:35;;;;;;;;;;;;;;;26.30;100.00;100737.59;5015763;28;19980;-78
2022/09/10 06:56:04;;;;;;;;;;;;;;;26.58;100.00;100738.25;5015608;28;19987;-79
2022/09/10 06:58:33;;;;;;;;;;;;;;;26.74;100.00;100733.97;5015504;28;19933;-79
2022/09/10 07:01:06;;;;;;;;;;;;;;;27.00;100.00;100733.28;5013961;28;19921;-82
2022/09/10 07:03:33;;;;;;;;;;;;;;;26.98;100.00;100722.69;5008484;28;19933;-80
2022/09/10 07:06:02;;;;;;;;;;;;;;;27.17;100.00;100730.63;5004148;28;19976;-81
2022/09/10 07:08:31;;;;;;;;;;;;;;;27.39;100.00;100727.78;5009667;28;20363;-77
2022/09/10 07:11:01;;;;;;;;;;;;;;;27.29;100.00;100719.91;5011611;28;19921;-80
2022/09/10 07:13:29;;;;;;;;;;;;;;;27.34;100.00;100727.94;5005219;28;20019;-77
2022/09/10 07:15:56;;;;;;;;;;;;;;;27.80;100.00;100721.09;5008518;28;19999;-85
2022/09/10 07:18:26;;;;;;;;;;;;;;;27.95;100.00;100724.47;5014372;28;20004;-79
2022/09/10 07:20:52;;;;;;;;;;;;;;;27.92;100.00;100727.81;5014843;28;19921;-81
2022/09/10 07:23:23;;;;;;;;;;;;;;;27.83;100.00;100722.38;5014994;28;19988;-80
2022/09/10 07:25:50;;;;;;;;;;;;;;;28.02;100.00;100725.59;5014275;28;19925;-78
2022/09/10 07:28:25;;;;;;;;;;;;;;;28.27;100.00;100718.47;5014506;28;19921;-79
2022/09/10 07:30:51;;;;;;;;;;;;;;;28.33;100.00;100723.75;5013615;28;19973;-77
2022/09/10 07:33:21;;;;;;;;;;;;;;;28.14;100.00;100726.81;5013208;28;19921;-77
2022/09/10 07:35:48;;;;;;;;;;;;;;;28.59;100.00;100732.69;5014255;28;19943;-78
2022/09/10 07:38:19;;;;;;;;;;;;;;;28.27;100.00;100734.84;5011277;28;19984;-81
2022/09/10 07:40:47;;;;;;;;;;;;;;;28.63;100.00;100735.59;5013024;28;19930;-81
2022/09/10 07:43:16;;;;;;;;;;;;;;;28.73;99.16;100732.47;5011303;28;19999;-78
2022/09/10 07:45:45;;;;;;;;;;;;;;;29.02;100.00;100728.19;5012387;28;19933;-80
2022/09/10 07:48:12;;;;;;;;;;;;;;;28.92;100.00;100732.84;5010762;28;20424;-80
2022/09/10 07:50:38;;;;;;;;;;;;;;;29.10;100.00;100724.59;5014216;28;19921;-85
2022/09/10 07:53:05;;;;;;;;;;;;;;;29.27;93.57;100731.91;5013662;28;19925;-78
2022/09/10 07:55:32;;;;;;;;;;;;;;;29.82;94.00;100731.66;5011741;28;19975;-77
2022/09/10 07:57:58;;;;;;;;;;;;;;;29.82;94.96;100728.94;5012456;28;19921;-77
2022/09/10 08:00:25;;;;;;;;;;;;;;;29.79;96.06;100724.13;5013592;28;19925;-78
2022/09/10 08:02:53;;;;;;;;;;;;;;;30.03;97.15;100717.94;5013776;28;19921;-80
2022/09/10 08:05:19;;;;;;;;;;;;;;;30.19;87.08;100712.63;5014443;28;19932;-79
2022/09/10 08:07:46;;;;;;;;;;;;;;;30.18;81.56;100721.19;5014091;28;19921;-78
2022/09/10 08:10:12;;;;;;;;;;;;;;;30.32;81.23;100711.56;5009959;28;19921;-81
2022/09/10 08:12:40;;;;;;;;;;;;;;;30.83;85.10;100718.69;5008491;28;19987;-80
2022/09/10 08:15:07;;;;;;;;;;;;;;;30.60;99.00;100710.09;5011034;28;19922;-81
2022/09/10 08:17:35;;;;;;;;;;;;;;;30.13;100.00;100722.19;5012018;28;19954;-80
2022/09/10 08:20:05;;;;;;;;;;;;;;;30.07;89.28;100720.81;5008997;28;19933;-81
2022/09/10 08:22:32;;;;;;;;;;;;;;;29.80;90.28;100724.91;5006732;28;20393;-76
2022/09/10 08:24:59;;;;;;;;;;;;;;;30.24;80.83;100726.13;5014342;28;19921;-80
2022/09/10 08:27:25;;;;;;;;;;;;;;;30.38;81.39;100728.56;5013022;28;19975;-81
2022/09/10 08:29:52;;;;;;;;;;;;;;;31.05;81.55;100722.94;5011752;28;19991;-80
2022/09/10 08:32:18;;;;;;;;;;;;;;;31.60;78.28;100711.28;5009224;28;19999;-81
2022/09/10 08:34:45;;;;;;;;;;;;;;;30.84;82.89;100725.78;5009491;28;19995;-78
2022/09/10 08:37:13;;;;;;;;;;;;;;;30.25;88.32;100716.78;5009038;28;20000;-81
2022/09/10 08:39:39;;;;;;;;;;;;;;;30.99;73.88;100711.41;5013107;28;19932;-81
2022/09/10 08:42:11;;;;;;;;;;;;;;;30.97;76.26;100717.22;5010687;28;20337;-78
2022/09/10 08:44:41;;;;;;;;;;;;;;;31.36;75.56;100711.34;5006451;28;19922;-81
2022/09/10 08:47:16;;;;;;;;;;;;;;;31.44;74.09;100705.75;5011767;28;20350;-77
2022/09/10 08:49:46;;;;;;;;;;;;;;;30.39;79.15;100707.47;5004032;28;19933;-77
2022/09/10 08:52:20;;;;;;;;;;;;;;;30.68;82.97;100703.69;5008285;28;20038;-80
2022/09/10 08:54:52;;;;;;;;;;;;;;;30.15;85.76;100699.97;5010610;28;19980;-77
2022/09/10 08:57:22;;;;;;;;;;;;;;;29.97;83.76;100711.06;5011269;28;19992;-77
2022/09/10 08:59:51;;;;;;;;;;;;;;;30.02;74.47;100699.94;5010776;28;19933;-82
2022/09/10 09:02:20;;;;;;;;;;;;;;;30.71;72.23;100687.41;5011928;28;20404;-81
2022/09/10 09:04:50;;;;;;;;;;;;;;;30.78;76.01;100690.38;5007920;28;20310;-80
2022/09/10 09:07:19;;;;;;;;;;;;;;;30.34;85.43;100679.13;5012958;28;20376;-80
2022/09/10 09:09:48;;;;;;;;;;;;;;;30.48;71.78;100672.53;5013770;28;19921;-78
2022/09/10 09:12:21;;;;;;;;;;;;;;;30.89;70.28;100681.69;5011570;28;20000;-78
2022/09/10 09:14:54;;;;;;;;;;;;;;;30.93;66.36;100679.88;5013199;28;19968;-77
2022/09/10 09:17:37;;;;;;;;;;;;;;;31.45;76.63;100668.91;5013125;28;20378;-81
2022/09/10 09:20:09;;;;;;;;;;;;;;;30.92;69.10;100661.78;5013031;28;20317;-80
2022/09/10 09:22:42;;;;;;;;;;;;;;;30.35;70.44;100653.34;5013590;28;19921;-80
2022/09/10 09:25:18;;;;;;;;;;;;;;;30.68;70.73;100651.63;5012909;28;20287;-82
2022/09/10 09:27:45;;;;;;;;;;;;;;;30.71;67.06;100653.69;5012082;28;19922;-81
2022/09/10 09:30:15;;;;;;;;;;;;;;;30.13;72.33;100645.50;5013561;28;19988;-77
2022/09/10 09:32:44;;;;;;;;;;;;;;;31.08;68.11;100649.00;5005094;28;19929;-78
2022/09/10 09:35:21;;;;;;;;;;;;;;;31.58;63.00;100635.91;5013276;28;19921;-82
2022/09/10 09:37:53;;;;;;;;;;;;;;;32.46;60.10;100628.44;5012712;28;19932;-80
2022/09/10 09:40:25;;;;;;;;;;;;;;;32.01;68.47;100628.84;5013588;28;19922;-81
2022/09/10 09:42:54;;;;;;;;;;;;;;;32.46;59.17;100622.94;5016864;28;19933;-78
2022/09/10 09:45:25;;;;;;;;;;;;;;;32.98;66.05;100619.03;5016975;28;20012;-81
2022/09/10 09:47:53;;;;;;;;;;;;;;;32.51;57.40;100617.16;5016714;28;19936;-82
2022/09/10 09:50:20;;;;;;;;;;;;;;;31.67;58.60;100620.09;5016723;28;19944;-81
2022/09/10 09:52:47;;;;;;;;;;;;;;;32.19;63.19;100626.56;5017454;28;19932;-78
2022/09/10 09:55:21;;;;;;;;;;;;;;;31.48;61.54;100624.31;5016521;28;19922;-81
2022/09/10 09:57:47;;;;;;;;;;;;;;;31.41;61.83;100618.63;5016608;28;19921;-77
2022/09/10 10:00:29;;;;;;;;;;;;;;;31.52;62.43;100623.59;5016257;28;19922;-78
2022/09/10 10:02:55;;;;;;;;;;;;;;;31.32;64.25;100617.13;5012252;28;19922;-80
2022/09/10 10:05:23;;;;;;;;;;;;;;;31.46;69.39;100615.63;5016228;28;19925;-78
2022/09/10 10:07:50;;;;;;;;;;;;;;;30.52;64.16;100626.84;5016410;28;19921;-81
2022/09/10 10:10:23;;;;;;;;;;;;;;;30.31;70.19;100622.28;5016419;28;19921;-81
2022/09/10 10:12:50;;;;;;;;;;;;;;;29.98;77.62;100619.59;5016249;28;20420;-81
2022/09/10 10:15:33;;;;;;;;;;;;;;;30.25;73.31;100609.94;5012859;28;20012;-80
2022/09/10 10:18:02;;;;;;;;;;;;;;;30.70;68.55;100617.25;5016458;28;19921;-79
2022/09/10 10:20:36;;;;;;;;;;;;;;;30.81;75.53;100614.88;4997176;28;19922;-79
2022/09/10 10:23:22;;;;;;;;;;;;;;;30.72;67.47;100616.91;5015763;28;20405;-82
2022/09/10 10:25:51;;;;;;;;;;;;;;;31.33;62.79;100605.81;5015764;28;19991;-81
2022/09/10 10:28:21;;;;;;;;;;;;;;;31.56;68.06;100613.50;5013770;28;20024;-79
2022/09/10 10:30:51;;;;;;;;;;;;;;;31.07;69.24;100610.94;5015606;28;19932;-81
2022/09/10 10:33:20;;;;;;;;;;;;;;;30.36;71.51;100607.56;5015655;28;20390;-81
2022/09/10 10:35:50;;;;;;;;;;;;;;;31.68;70.90;100595.06;5015827;28;20314;-82
2022/09/10 10:38:27;;;;;;;;;;;;;;;31.72;70.29;100592.41;5015881;28;19929;-81
2022/09/10 10:41:06;;;;;;;;;;;;;;;31.35;72.61;100597.25;5016240;28;20325;-82
2022/09/10 10:43:40;;;;;;;;;;;;;;;31.45;64.40;100589.34;5015664;28;19988;-81
2022/09/10 10:46:12;;;;;;;;;;;;;;;32.84;61.33;100596.69;5015497;28;19979;-79
2022/09/10 10:48:46;;;;;;;;;;;;;;;32.79;58.51;100595.00;5014958;28;19925;-82
2022/09/10 10:51:17;;;;;;;;;;;;;;;33.22;56.78;100586.88;5014632;28;20333;-79
2022/09/10 10:53:55;;;;;;;;;;;;;;;32.91;61.29;100596.06;5010985;28;19992;-78
2022/09/10 10:56:27;;;;;;;;;;;;;;;32.42;61.75;100591.78;5011648;28;19924;-82
2022/09/10 10:59:18;;;;;;;;;;;;;;;31.68;67.72;100606.03;5008105;28;19925;-79
2022/09/10 11:01:47;;;;;;;;;;;;;;;31.89;69.36;100594.84;5013715;28;20251;-82
2022/09/10 11:04:21;;;;;;;;;;;;;;;31.89;60.49;100591.25;5014991;28;20370;-79
2022/09/10 11:06:52;;;;;;;;;;;;;;;30.99;68.20;100597.03;5013110;28;19929;-81
2022/09/10 11:09:22;;;;;;;;;;;;;;;31.17;70.82;100600.28;4999799;28;19980;-79
2022/09/10 11:11:58;;;;;;;;;;;;;;;30.66;74.93;100596.38;5013776;28;19971;-84
2022/09/10 11:14:28;;;;;;;;;;;;;;;29.97;71.57;100593.34;5012794;28;20016;-82
2022/09/10 11:16:58;;;;;;;;;;;;;;;29.73;77.00;100583.16;5006268;28;19956;-78
2022/09/10 11:19:34;;;;;;;;;;;;;;;30.26;74.05;100578.69;5014854;28;19983;-78
2022/09/10 11:22:04;;;;;;;;;;;;;;;30.36;72.04;100582.91;5012593;28;19963;-78
2022/09/10 11:24:35;;;;;;;;;;;;;;;30.76;80.08;100576.69;5009691;28;19921;-81
2022/09/10 11:27:07;;;;;;;;;;;;;;;31.18;80.90;100570.91;5011824;28;20354;-78
2022/09/10 11:29:37;;;;;;;;;;;;;;;31.08;77.63;100577.69;5012139;28;19925;-79
2022/09/10 11:32:11;;;;;;;;;;;;;;;31.03;81.19;100567.75;5014884;28;20068;-81
2022/09/10 11:34:42;;;;;;;;;;;;;;;30.94;76.56;100564.34;5014552;28;19921;-79
2022/09/10 11:37:14;;;;;;;;;;;;;;;31.10;83.34;100561.66;5014814;28;19932;-78
2022/09/10 11:39:44;;;;;;;;;;;;;;;30.60;75.51;100562.91;5006385;28;19976;-80
2022/09/10 11:42:31;;;;;;;;;;;;;;;31.17;74.77;100550.91;5014310;28;19948;-78
2022/09/10 11:45:02;;;;;;;;;;;;;;;31.28;80.44;100559.41;5010291;28;20032;-78
2022/09/10 11:47:32;;;;;;;;;;;;;;;31.89;77.83;100550.06;5014636;28;20258;-79
2022/09/10 11:50:03;;;;;;;;;;;;;;;31.24;77.00;100548.34;5013981;28;20412;-81
2022/09/10 11:52:34;;;;;;;;;;;;;;;31.54;69.41;100544.47;5014851;28;19925;-79
2022/09/10 11:55:02;;;;;;;;;;;;;;;31.74;62.17;100546.16;5014420;28;19956;-79
2022/09/10 11:57:34;;;;;;;;;;;;;;;31.69;65.60;100538.19;5014158;28;19948;-82
2022/09/10 12:00:06;;;;;;;;;;;;;;;31.83;67.46;100535.81;5012859;28;20337;-79
2022/09/10 12:02:52;;;;;;;;;;;;;;;32.13;64.37;100540.88;5013110;28;19925;-79
2022/09/10 12:05:26;;;;;;;;;;;;;;;31.94;65.34;100541.59;5013813;28;19922;-80
2022/09/10 12:07:56;;;;;;;;;;;;;;;31.90;66.15;100530.53;5006850;28;19971;-83
2022/09/10 12:10:30;;;;;;;;;;;;;;;31.73;61.89;100521.81;5012783;28;19921;-80
2022/09/10 12:12:58;;;;;;;;;;;;;;;31.42;68.24;100521.44;5012587;28;19980;-77
2022/09/10 12:15:26;;;;;;;;;;;;;;;31.36;64.50;100513.81;5014416;28;19921;-80
2022/09/10 12:17:55;;;;;;;;;;;;;;;31.88;69.85;100510.81;5014229;28;19979;-79
2022/09/10 12:20:27;;;;;;;;;;;;;;;32.21;59.64;100508.88;5013974;28;19925;-77
2022/09/10 12:22:55;;;;;;;;;;;;;;;31.78;68.38;100511.38;5014378;28;20349;-78
2022/09/10 12:25:29;;;;;;;;;;;;;;;32.76;66.79;100507.75;5014088;28;20028;-77
2022/09/10 12:27:57;;;;;;;;;;;;;;;33.23;65.24;100495.75;5013854;28;19922;-77
2022/09/10 12:30:42;;;;;;;;;;;;;;;34.39;61.89;100488.19;5013017;28;19936;-80
2022/09/10 12:33:28;;;;;;;;;;;;;;;32.62;55.09;100496.47;5014046;28;19922;-81
2022/09/10 12:35:57;;;;;;;;;;;;;;;32.64;64.57;100485.91;5013239;28;20370;-78
2022/09/10 12:38:47;;;;;;;;;;;;;;;33.20;63.54;100481.91;5014530;28;19983;-81
2022/09/10 12:41:29;;;;;;;;;;;;;;;32.57;63.18;100478.31;5014159;28;19936;-78